Time;durP1;ratioP1;P1;durP2;ratioP2;P2;SDS_P1;SDS_P2;PMS_P1;PMS_P2;Temp;Humidity;BMP_temperature;BMP_pressure;BME280_temperature;BME280_humidity;BME280_pressure;Samples;Min_cycle;Max_cycle;Signal;HPM_P1;HPM_P2
2023/03/01 00:00:07;;;;;;;28.80;17.17;;;;;;;;;;5112307;28;20102;-89
2023/03/01 00:02:52;;;;;;;32.13;17.57;;;;;;;;;;5112651;28;20058;-85
2023/03/01 00:05:37;;;;;;;31.33;17.97;;;;;;;;;;5112222;28;20047;-85
2023/03/01 00:08:22;;;;;;;29.93;17.30;;;;;;;;;;5082365;28;20510;-85
2023/03/01 00:11:26;;;;;;;26.50;16.73;;;-0.60;99.90;;;;;;5112131;28;20407;-85
2023/03/01 00:14:10;;;;;;;31.15;17.25;;;;;;;;;;5100013;28;20084;-91
2023/03/01 00:16:55;;;;;;;28.23;18.07;;;;;;;;;;5116495;28;20043;-85
2023/03/01 00:19:39;;;;;;;27.43;16.57;;;;;;;;;;5100676;28;20172;-86
2023/03/01 00:22:23;;;;;;;27.70;17.10;;;;;;;;;;5115854;28;20042;-85
2023/03/01 00:25:09;;;;;;;28.10;17.87;;;;;;;;;;5116133;28;20391;-85
2023/03/01 00:27:53;;;;;;;34.67;19.23;;;;;;;;;;5086725;28;20527;-85
2023/03/01 00:30:38;;;;;;;28.60;17.87;;;;;;;;;;5099998;28;20441;-85
2023/03/01 00:33:23;;;;;;;30.93;18.20;;;;;;;;;;5098298;28;20080;-85
2023/03/01 00:36:08;;;;;;;28.17;17.70;;;;;;;;;;5106089;28;20081;-85
2023/03/01 00:38:53;;;;;;;32.20;19.27;;;;;;;;;;5115976;28;20419;-85
2023/03/01 00:41:38;;;;;;;37.67;20.13;;;;;;;;;;5100469;28;20506;-85
2023/03/01 00:44:23;;;;;;;40.07;20.57;;;;;;;;;;5103187;28;20047;-85
2023/03/01 00:47:07;;;;;;;109.53;24.50;;;;;;;;;;5085476;28;20109;-85
2023/03/01 00:49:52;;;;;;;64.47;21.13;;;;;;;;;;5100484;28;20501;-86
2023/03/01 00:52:36;;;;;;;167.57;26.60;;;;;;;;;;5099545;28;20398;-85
2023/03/01 00:55:21;;;;;;;300.03;29.93;;;;;;;;;;5099514;28;20066;-86
2023/03/01 00:58:06;;;;;;;239.93;28.63;;;;;;;;;;5115861;28;20085;-85
2023/03/01 01:00:52;;;;;;;118.57;26.17;;;;;;;;;;5115364;28;20101;-85
2023/03/01 01:03:36;;;;;;;159.03;23.13;;;;;;;;;;5114795;28;20035;-86
2023/03/01 01:06:22;;;;;;;295.87;33.33;;;;;;;;;;5114950;28;20090;-86
2023/03/01 01:09:07;;;;;;;105.23;21.83;;;;;;;;;;5098963;28;20066;-85
2023/03/01 01:11:52;;;;;;;130.57;21.03;;;;;;;;;;5099901;28;20481;-85
2023/03/01 01:14:37;;;;;;;113.67;21.77;;;;;;;;;;5099174;28;20069;-84
2023/03/01 01:17:21;;;;;;;213.90;25.20;;;;;;;;;;5085277;28;20057;-85
2023/03/01 01:20:07;;;;;;;121.67;23.77;;;;;;;;;;5099924;28;20054;-84
2023/03/01 01:22:52;;;;;;;119.03;24.50;;;;;;;;;;5115217;28;21326;-85
2023/03/01 01:25:37;;;;;;;129.40;24.17;;;;;;;;;;5113494;28;20062;-85
2023/03/01 01:28:21;;;;;;;102.07;19.93;;;;;;;;;;5085303;28;20070;-86
2023/03/01 01:31:06;;;;;;;91.53;18.77;;;;;;;;;;5099077;28;20054;-85
2023/03/01 01:33:52;;;;;;;121.63;22.30;;;;;;;;;;5109544;28;20031;-85
2023/03/01 01:36:37;;;;;;;123.10;20.90;;;;;;;;;;5108377;28;20083;-87
2023/03/01 01:39:22;;;;;;;64.30;16.23;;;;;;;;;;5102955;28;20493;-88
2023/03/01 01:42:06;;;;;;;67.43;18.80;;;;;;;;;;5114426;28;20698;-85
2023/03/01 01:45:14;;;;;;;53.33;16.60;;;;;;;;;;5099118;28;20514;-85
2023/03/01 01:48:03;;;;;;;78.47;15.53;;;;;;;;;;5088834;28;20042;-85
2023/03/01 01:50:51;;;;;;;39.00;15.57;;;;;;;;;;5114408;28;20031;-85
2023/03/01 01:53:37;;;;;;;26.17;14.93;;;;;;;;;;5098667;28;20066;-85
2023/03/01 01:56:23;;;;;;;23.47;13.77;;;;;;;;;;5098973;28;20065;-89
2023/03/01 01:59:08;;;;;;;26.93;14.70;;;;;;;;;;5099012;28;20059;-85
2023/03/01 02:01:53;;;;;;;23.33;14.10;;;;;;;;;;5114191;28;20043;-85
2023/03/01 02:04:38;;;;;;;21.63;13.57;;;;;;;;;;5098105;28;20043;-85
2023/03/01 02:07:24;;;;;;;25.83;15.80;;;;;;;;;;5114218;28;20038;-89
2023/03/01 02:10:09;;;;;;;25.03;15.03;;;;;;;;;;5098940;28;20540;-85
2023/03/01 02:12:55;;;;;;;38.83;14.17;;;;;;;;;;5114176;28;20081;-85
2023/03/01 02:15:41;;;;;;;90.90;19.73;;;;;;;;;;5113618;28;20104;-85
2023/03/01 02:18:26;;;;;;;75.80;17.73;;;;;;;;;;5098323;28;20073;-89
2023/03/01 02:21:35;;;;;;;71.43;20.87;;;-1.30;99.90;;;;;;5113694;28;20029;-85
2023/03/01 02:24:39;;;;;;;117.90;20.80;;;;;;;;;;5098390;28;20043;-85
2023/03/01 02:27:26;;;;;;;48.13;17.43;;;;;;;;;;5111771;28;20034;-86
2023/03/01 02:30:12;;;;;;;62.43;15.60;;;;;;;;;;5098336;28;20292;-87
2023/03/01 02:33:02;;;;;;;76.03;16.60;;;;;;;;;;5110514;28;20499;-86
2023/03/01 02:35:46;;;;;;;116.63;20.53;;;;;;;;;;5112997;28;20655;-85
2023/03/01 02:38:31;;;;;;;104.17;19.30;;;;;;;;;;5098973;28;20133;-86
2023/03/01 02:41:18;;;;;;;61.43;17.77;;;;;;;;;;5098234;28;20038;-85
2023/03/01 02:44:03;;;;;;;50.03;15.47;;;;;;;;;;5097858;28;20108;-85
2023/03/01 02:46:50;;;;;;;38.47;15.57;;;;;;;;;;5097631;28;20608;-85
2023/03/01 02:49:36;;;;;;;57.43;16.10;;;;;;;;;;5113065;28;20066;-85
2023/03/01 02:52:31;;;;;;;40.40;16.23;;;;;;;;;;5093449;28;20035;-85
2023/03/01 02:55:17;;;;;;;55.27;16.33;;;;;;;;;;5087384;28;20038;-85
2023/03/01 02:58:02;;;;;;;57.80;17.77;;;;;;;;;;5057534;28;20055;-85
2023/03/01 03:00:49;;;;;;;70.90;19.47;;;;;;;;;;5078393;28;20070;-86
2023/03/01 03:03:33;;;;;;;75.50;16.73;;;;;;;;;;5097184;28;20081;-85
2023/03/01 03:06:18;;;;;;;46.17;16.93;;;;;;;;;;5097734;28;20046;-85
2023/03/01 03:09:03;;;;;;;67.70;16.60;;;;;;;;;;5097793;28;20038;-85
2023/03/01 03:11:48;;;;;;;36.23;15.33;;;;;;;;;;5069750;28;20058;-85
2023/03/01 03:14:34;;;;;;;51.97;16.27;;;;;;;;;;5106684;28;20041;-88
2023/03/01 03:17:19;;;;;;;62.57;17.90;;;;;;;;;;5057191;28;20044;-85
2023/03/01 03:20:04;;;;;;;50.20;17.70;;;;;;;;;;5085308;28;20046;-85
2023/03/01 03:22:50;;;;;;;43.90;17.80;;;;;;;;;;5112288;28;20057;-85
2023/03/01 03:25:38;;;;;;;35.77;15.13;;;;;;;;;;5112406;28;20041;-89
2023/03/01 03:28:22;;;;;;;25.40;14.77;;;;;;;;;;5097299;28;20031;-85
2023/03/01 03:31:08;;;;;;;24.07;13.77;;;;;;;;;;5090333;28;20059;-85
2023/03/01 03:33:53;;;;;;;44.77;15.73;;;;;;;;;;5112249;28;20162;-85
2023/03/01 03:36:38;;;;;;;41.57;16.57;;;;;;;;;;5096498;28;20035;-86
2023/03/01 03:39:22;;;;;;;41.73;15.03;;;;;;;;;;5083205;28;20133;-84
2023/03/01 03:42:07;;;;;;;38.73;15.07;;;;;;;;;;5097079;28;20035;-85
2023/03/01 03:44:51;;;;;;;30.57;14.40;;;;;;;;;;5084698;28;20047;-85
2023/03/01 03:47:36;;;;;;;23.20;14.17;;;;;;;;;;5089784;28;20403;-88
2023/03/01 03:50:20;;;;;;;22.07;13.87;;;;;;;;;;5096997;28;20088;-85
2023/03/01 03:53:06;;;;;;;22.90;13.90;;;;;;;;;;5097183;28;20055;-85
2023/03/01 03:55:51;;;;;;;23.70;13.20;;;;;;;;;;5112071;28;20085;-85
2023/03/01 03:58:36;;;;;;;26.80;13.90;;;;;;;;;;5096935;28;20039;-85
2023/03/01 04:01:20;;;;;;;33.77;13.93;;;;;;;;;;5095110;28;20081;-85
2023/03/01 04:04:07;;;;;;;22.20;13.53;;;;;;;;;;5090237;28;20533;-85
2023/03/01 04:06:52;;;;;;;22.03;13.13;;;;;;;;;;5111968;28;20085;-85
2023/03/01 04:09:37;;;;;;;20.53;12.40;;;;;;;;;;5071468;28;20034;-85
2023/03/01 04:12:22;;;;;;;30.73;12.80;;;;;;;;;;5096990;28;20123;-85
2023/03/01 04:15:14;;;;;;;20.03;12.27;;;;;;;;;;5082975;28;20510;-85
2023/03/01 04:17:59;;;;;;;24.87;13.43;;;;;;;;;;5056395;28;20078;-86
2023/03/01 04:20:44;;;;;;;22.53;12.40;;;;;;;;;;5106314;28;20043;-84
2023/03/01 04:23:29;;;;;;;56.73;15.13;;;;;;;;;;5096997;28;20046;-84
2023/03/01 04:26:13;;;;;;;21.70;12.07;;;;;;;;;;5112084;28;20463;-85
2023/03/01 04:28:58;;;;;;;20.07;12.37;;;;;;;;;;5111758;28;20038;-85
2023/03/01 04:31:42;;;;;;;21.70;13.40;;;;;;;;;;5112018;28;20505;-88
2023/03/01 04:34:27;;;;;;;18.90;12.77;;;;;;;;;;5098258;28;20424;-84
2023/03/01 04:37:12;;;;;;;17.17;11.77;;;;;;;;;;5108083;28;20442;-84
2023/03/01 04:39:57;;;;;;;17.00;10.77;;;;;;;;;;5091121;28;20085;-84
2023/03/01 04:42:42;;;;;;;18.77;12.03;;;;;;;;;;5096625;28;20391;-84
2023/03/01 04:45:27;;;;;;;18.00;11.70;;;;;;;;;;5111833;28;20051;-84
2023/03/01 04:48:12;;;;;;;17.80;11.00;;;;;;;;;;5095367;28;20460;-85
2023/03/01 04:50:57;;;;;;;18.47;11.50;;;;;;;;;;5085859;28;20077;-84
2023/03/01 04:53:41;;;;;;;20.30;12.90;;;;;;;;;;5096455;28;20039;-84
2023/03/01 04:56:26;;;;;;;20.33;12.70;;;;;;;;;;5112087;28;20490;-84
2023/03/01 04:59:12;;;;;;;18.77;11.67;;;;;;;;;;5112222;28;20490;-84
2023/03/01 05:01:57;;;;;;;19.93;11.97;;;;;;;;;;5099521;28;20535;-85
2023/03/01 05:04:42;;;;;;;19.70;12.33;;;;;;;;;;5108101;28;20043;-84
2023/03/01 05:07:26;;;;;;;20.80;12.20;;;;;;;;;;5112524;28;20065;-84
2023/03/01 05:10:11;;;;;;;18.73;11.70;;;;;;;;;;5099968;28;20399;-84
2023/03/01 05:12:59;;;;;;;17.20;11.27;;;;;;;;;;5072708;28;20092;-84
2023/03/01 05:15:44;;;;;;;18.00;11.67;;;;;;;;;;5104665;28;20494;-84
2023/03/01 05:18:30;;;;;;;18.83;11.13;;;;;;;;;;5115414;28;20100;-84
2023/03/01 05:21:18;;;;;;;18.60;11.83;;;;;;;;;;5115050;28;20395;-84
2023/03/01 05:24:03;;;;;;;19.47;11.70;;;;;;;;;;5085510;28;20066;-85
2023/03/01 05:26:48;;;;;;;16.37;11.23;;;;;;;;;;5089293;28;20074;-85
2023/03/01 05:29:34;;;;;;;16.67;11.07;;;;;;;;;;5103339;28;20430;-84
2023/03/01 05:32:19;;;;;;;18.27;12.23;;;;;;;;;;5088826;28;20498;-84
2023/03/01 05:35:03;;;;;;;17.77;11.33;;;;;;;;;;5093418;28;20549;-84
2023/03/01 05:37:49;;;;;;;17.40;11.83;;;;;;;;;;5082142;28;20077;-86
2023/03/01 05:40:34;;;;;;;21.03;12.50;;;;;;;;;;5081501;28;20054;-85
2023/03/01 05:43:19;;;;;;;18.67;11.47;;;;;;;;;;5089061;28;20036;-83
2023/03/01 05:46:03;;;;;;;19.37;12.30;;;;;;;;;;5075964;28;20101;-84
2023/03/01 05:48:48;;;;;;;22.47;12.67;;;;;;;;;;5080293;28;20039;-85
2023/03/01 05:51:33;;;;;;;20.27;12.27;;;;;;;;;;5079107;28;20036;-84
2023/03/01 05:54:19;;;;;;;18.17;11.00;;;;;;;;;;5084589;28;20522;-84
2023/03/01 05:57:04;;;;;;;19.20;12.20;;;;;;;;;;5077648;28;20043;-84
2023/03/01 05:59:48;;;;;;;17.83;11.87;;;;;;;;;;5084485;28;20040;-84
2023/03/01 06:02:33;;;;;;;18.53;12.00;;;;;;;;;;5061686;28;20035;-83
2023/03/01 06:05:18;;;;;;;19.50;11.43;;;;;;;;;;5075662;28;20048;-84
2023/03/01 06:08:03;;;;;;;19.27;12.63;;;;;;;;;;5068559;28;20074;-84
2023/03/01 06:10:48;;;;;;;16.97;11.13;;;;;;;;;;5058247;28;20035;-84
2023/03/01 06:13:32;;;;;;;18.63;12.40;;;;;;;;;;5084231;28;20094;-83
2023/03/01 06:16:17;;;;;;;19.73;12.07;;;;;;;;;;5082946;28;20051;-84
2023/03/01 06:19:01;;;;;;;20.50;11.67;;;;;;;;;;5060889;28;20058;-84
2023/03/01 06:21:46;;;;;;;22.93;11.97;;;;;;;;;;5084014;28;20036;-83
2023/03/01 06:24:31;;;;;;;17.20;11.43;;;;;;;;;;5064485;28;20047;-84
2023/03/01 06:27:15;;;;;;;18.17;11.37;;;;;;;;;;5080578;28;20724;-84
2023/03/01 06:30:00;;;;;;;19.17;12.13;;;;;;;;;;5068080;28;20047;-84
2023/03/01 06:32:44;;;;;;;17.67;11.23;;;;;;;;;;5078927;28;20066;-83
2023/03/01 06:35:30;;;;;;;18.73;11.83;;;;;;;;;;5089989;28;20141;-83
2023/03/01 06:38:17;;;;;;;17.47;11.07;;;;;;;;;;5083684;28;20055;-83
2023/03/01 06:41:01;;;;;;;18.70;11.03;;;;;;;;;;5081754;28;20074;-83
2023/03/01 06:43:46;;;;;;;17.10;10.90;;;;;;;;;;5095641;28;20513;-83
2023/03/01 06:46:31;;;;;;;17.07;11.20;;;;;;;;;;5078841;28;20050;-83
2023/03/01 06:49:17;;;;;;;17.37;12.30;;;;;;;;;;5110614;28;20054;-84
2023/03/01 06:52:02;;;;;;;17.00;11.57;;;;;;;;;;5109658;28;20035;-85
2023/03/01 06:54:46;;;;;;;17.60;11.20;;;;;;;;;;5101019;28;20058;-83
2023/03/01 06:57:31;;;;;;;19.70;11.67;;;;;;;;;;5094164;28;20530;-84
2023/03/01 07:00:15;;;;;;;18.20;11.23;;;;;;;;;;5082116;28;20047;-84
2023/03/01 07:03:02;;;;;;;18.60;11.63;;;;;;;;;;5088189;28;20038;-85
2023/03/01 07:05:49;;;;;;;19.03;11.77;;;;;;;;;;5088038;28;20062;-83
2023/03/01 07:08:33;;;;;;;17.93;12.17;;;;;;;;;;5083757;28;20055;-85
2023/03/01 07:11:18;;;;;;;20.33;12.57;;;;;;;;;;5104833;28;20126;-84
2023/03/01 07:14:03;;;;;;;22.93;13.23;;;;;;;;;;5093218;28;20035;-85
2023/03/01 07:16:47;;;;;;;18.03;12.17;;;;;;;;;;5085135;28;20399;-84
2023/03/01 07:19:32;;;;;;;17.90;12.20;;;;;;;;;;5094485;28;20035;-84
2023/03/01 07:22:17;;;;;;;21.57;12.97;;;;;;;;;;5081087;28;20050;-85
2023/03/01 07:25:01;;;;;;;19.03;12.43;;;;;;;;;;5098176;28;20132;-84
2023/03/01 07:27:50;;;;;;;20.73;12.80;;;;;;;;;;5081908;28;20675;-84
2023/03/01 07:30:34;;;;;;;18.57;11.23;;;;;;;;;;5096507;28;20093;-84
2023/03/01 07:33:19;;;;;;;19.33;10.83;;;;;;;;;;5096795;28;20180;-85
2023/03/01 07:36:04;;;;;;;17.37;11.50;;;;;;;;;;5097353;28;20510;-85
2023/03/01 07:38:51;;;;;;;17.47;10.63;;;;;;;;;;5083059;28;20051;-88
2023/03/01 07:41:36;;;;;;;33.30;10.00;;;;;;;;;;5112622;28;20426;-87
2023/03/01 07:44:20;;;;;;;14.30;10.00;;;;;;;;;;5082514;28;20051;-85
2023/03/01 07:47:05;;;;;;;16.17;9.53;;;;;;;;;;5097222;28;20529;-85
2023/03/01 07:49:49;;;;;;;17.70;11.03;;;;;;;;;;5097530;28;20049;-85
2023/03/01 07:52:34;;;;;;;18.53;10.53;;;;;;;;;;5112693;28;20462;-85
2023/03/01 07:55:19;;;;;;;15.73;10.52;;;;;;;;;;5111798;28;20047;-85
2023/03/01 07:58:04;;;;;;;16.83;10.73;;;;;;;;;;5097200;28;20035;-84
2023/03/01 08:00:48;;;;;;;14.80;9.27;;;;;;;;;;5097159;28;20070;-84
2023/03/01 08:03:33;;;;;;;17.30;11.03;;;;;;;;;;5112309;28;20218;-84
2023/03/01 08:06:18;;;;;;;18.02;11.13;;;;;;;;;;5111953;28;20113;-85
2023/03/01 08:09:03;;;;;;;22.02;13.15;;;;;;;;;;5096983;28;20039;-85
2023/03/01 08:11:47;;;;;;;16.27;11.02;;;;;;;;;;5097154;28;20411;-84
2023/03/01 08:14:32;;;;;;;22.75;13.05;;;;;;;;;;5082464;28;20110;-84
2023/03/01 08:17:17;;;;;;;21.15;13.55;;;;;;;;;;5096306;28;20085;-85
2023/03/01 08:20:04;;;;;;;20.88;14.15;;;;;;;;;;5112566;28;20034;-84
2023/03/01 08:22:48;;;;;;;20.15;14.02;;;;;;;;;;5112217;28;20035;-84
2023/03/01 08:25:32;;;;;;;25.15;13.50;;;;;;;;;;5111770;28;20054;-84
2023/03/01 08:28:17;;;;;;;21.98;14.27;;;;;;;;;;5111707;28;20080;-84
2023/03/01 08:31:02;;;;;;;26.90;15.20;;;;;;;;;;5112048;28;20042;-84
2023/03/01 08:33:54;;;;;;;24.60;15.85;;;;;;;;;;5113689;28;20394;-84
2023/03/01 08:36:40;;;;;;;22.17;14.55;;;;;;;;;;5115835;28;20053;-84
2023/03/01 08:39:24;;;;;;;23.75;14.70;;;;;;;;;;5100107;28;20047;-84
2023/03/01 08:42:09;;;;;;;26.83;15.82;;;;;;;;;;5115746;28;20080;-84
2023/03/01 08:44:54;;;;;;;31.73;17.52;;;;;;;;;;5115986;28;20452;-84
2023/03/01 08:47:38;;;;;;;27.88;17.05;;;;;;;;;;5115766;28;20070;-84
2023/03/01 08:50:24;;;;;;;25.65;15.98;;;;;;;;;;5099705;28;20038;-84
2023/03/01 08:53:09;;;;;;;30.15;17.27;;;;;;;;;;5100619;28;20037;-84
2023/03/01 08:55:53;;;;;;;29.92;17.15;;;;;;;;;;5115804;28;20510;-84
2023/03/01 08:58:39;;;;;;;27.83;16.65;;;;;;;;;;5099665;28;20038;-84
2023/03/01 09:01:23;;;;;;;29.20;16.02;;;;;;;;;;5085748;28;20046;-84
2023/03/01 09:04:08;;;;;;;32.22;18.70;;;;;;;;;;5100138;28;20054;-84
2023/03/01 09:06:53;;;;;;;26.23;16.63;;;;;;;;;;5115669;28;20489;-84
2023/03/01 09:09:37;;;;;;;26.23;16.27;;;;;;;;;;5059306;28;20404;-84
2023/03/01 09:12:22;;;;;;;27.42;16.42;;;;;;;;;;5091115;28;20035;-84
2023/03/01 09:15:07;;;;;;;27.75;17.30;;;;;;;;;;5115414;28;20047;-84
2023/03/01 09:17:52;;;;;;;28.92;17.90;;;;;;;;;;5115195;28;20076;-84
2023/03/01 09:20:37;;;;;;;26.58;16.20;;;;;;;;;;5085189;28;20168;-85
2023/03/01 09:23:21;;;;;;;29.23;17.45;;;;;;;;;;5085157;28;20106;-85
2023/03/01 09:26:10;;;;;;;28.52;17.27;;;;;;;;;;5115042;28;20041;-84
2023/03/01 09:28:56;;;;;;;28.02;18.00;;;;;;;;;;5099780;28;20531;-84
2023/03/01 09:31:41;;;;;;;27.40;18.13;;;;;;;;;;5114392;28;20054;-83
2023/03/01 09:34:26;;;;;;;28.70;17.27;;;;;;;;;;5114305;28;20038;-84
2023/03/01 09:37:10;;;;;;;27.98;16.73;;;;;;;;;;5115129;28;20486;-84
2023/03/01 09:39:56;;;;;;;30.08;17.05;;;;;;;;;;5085235;28;20498;-84
2023/03/01 09:42:46;;;;;;;31.77;18.05;;;;;;;;;;5114354;28;20131;-84
2023/03/01 09:45:34;;;;;;;29.02;16.83;;;;;;;;;;5113244;28;20122;-84
2023/03/01 09:48:23;;;;;;;27.27;16.13;;;;;;;;;;5099219;28;20043;-87
2023/03/01 09:51:09;;;;;;;29.05;16.50;;;;;;;;;;5114772;28;20076;-84
2023/03/01 09:53:55;;;;;;;28.38;16.45;;;;;;;;;;5114542;28;20038;-83
2023/03/01 09:56:46;;;;;;;29.02;16.77;;;6.20;99.90;;;;;;5114118;28;20681;-83
2023/03/01 09:59:50;;;;;;;30.17;16.17;;;;;;;;;;5113974;28;20038;-84
2023/03/01 10:03:01;;;;;;;28.42;16.63;;;6.60;99.90;;;;;;5098351;28;20448;-84
2023/03/01 10:05:53;;;;;;;27.08;16.88;;;;;;;;;;5098251;28;20092;-83
2023/03/01 10:08:44;;;;;;;27.35;15.30;;;;;;;;;;5113943;28;20039;-83
2023/03/01 10:11:33;;;;;;;30.85;17.20;;;;;;;;;;5113850;28;20552;-84
2023/03/01 10:14:33;;;;;;;26.33;16.55;;;;;;;;;;5098526;28;20081;-84
2023/03/01 10:17:33;;;;;;;28.20;16.45;;;;;;;;;;5098639;28;20441;-84
2023/03/01 10:20:20;;;;;;;27.25;16.02;;;;;;;;;;5113988;28;20042;-83
2023/03/01 10:23:04;;;;;;;24.83;14.73;;;;;;;;;;5098640;28;20034;-84
2023/03/01 10:25:52;;;;;;;25.50;15.32;;;;;;;;;;5098080;28;20088;-84
2023/03/01 10:28:40;;;;;;;27.67;17.50;;;;;;;;;;5098080;28;20115;-84
2023/03/01 10:31:27;;;;;;;23.38;15.57;;;;;;;;;;5097773;28;20043;-87
2023/03/01 10:34:20;;;;;;;28.70;14.23;;;;;;;;;;5098515;28;20168;-83
2023/03/01 10:37:18;;;;;;;25.23;15.27;;;7.40;99.90;;;;;;5112564;28;20073;-83
2023/03/01 10:40:09;;;;;;;22.83;13.73;;;;;;;;;;5113599;28;20441;-84
2023/03/01 10:42:54;;;;;;;29.48;15.63;;;;;;;;;;5098514;28;20548;-83
2023/03/01 10:45:39;;;;;;;25.02;15.25;;;;;;;;;;5112848;28;20438;-84
2023/03/01 10:48:27;;;;;;;25.10;15.20;;;;;;;;;;5097952;28;20097;-84
2023/03/01 10:51:15;;;;;;;25.48;14.52;;;;;;;;;;5113533;28;20088;-83
2023/03/01 10:54:15;;;;;;;25.25;15.32;;;;;;;;;;5113303;28;20040;-84
2023/03/01 10:57:01;;;;;;;21.02;12.27;;;;;;;;;;5113264;28;20061;-83
2023/03/01 10:59:46;;;;;;;23.88;13.30;;;;;;;;;;5097296;28;20076;-83
2023/03/01 11:02:33;;;;;;;20.55;11.98;;;;;;;;;;5082973;28;20062;-85
2023/03/01 11:05:23;;;;;;;19.58;11.68;;;;;;;;;;5113375;28;20129;-83
2023/03/01 11:08:10;;;;;;;19.17;12.75;;;;;;;;;;5113179;28;20039;-83
2023/03/01 11:11:03;;;;;;;19.77;11.43;;;;;;;;;;5112705;28;20046;-83
2023/03/01 11:14:15;;;;;;;18.13;11.55;;;7.40;99.90;;;;;;5112744;28;20034;-83
2023/03/01 11:17:04;;;;;;;20.52;12.13;;;;;;;;;;5097113;28;20039;-83
2023/03/01 11:20:18;;;;;;;24.05;12.30;;;;;;;;;;5112613;28;20111;-83
2023/03/01 11:23:13;;;;;;;20.80;12.37;;;;;;;;;;5112591;28;20034;-83
2023/03/01 11:26:07;;;;;;;16.45;10.95;;;;;;;;;;5097362;28;20078;-84
2023/03/01 11:28:52;;;;;;;;;;;;;;;;;;5097382;28;20037;-83
2023/03/01 11:31:39;;;;;;;21.85;12.18;;;;;;;;;;5069435;28;20432;-84
2023/03/01 11:34:31;;;;;;;21.05;12.80;;;;;;;;;;5112650;28;20104;-85
2023/03/01 11:37:24;;;;;;;19.95;13.32;;;;;;;;;;5112811;28;20038;-83
2023/03/01 11:40:12;;;;;;;17.27;11.23;;;;;;;;;;5097163;28;20039;-83
2023/03/01 11:43:18;;;;;;;20.55;12.55;;;7.30;99.90;;;;;;5112124;28;20043;-84
2023/03/01 11:46:06;;;;;;;21.02;12.65;;;;;;;;;;5091072;28;20089;-83
2023/03/01 11:48:58;;;;;;;24.80;13.68;;;;;;;;;;5111832;28;20034;-84
2023/03/01 11:51:52;;;;;;;21.50;13.32;;;;;;;;;;5096680;28;20081;-84
2023/03/01 11:54:46;;;;;;;19.15;12.75;;;;;;;;;;5091297;28;20064;-85
2023/03/01 11:57:47;;;;;;;19.42;12.48;;;;;;;;;;5112214;28;20540;-84
2023/03/01 12:00:41;;;;;;;21.83;13.43;;;;;;;;;;5112326;28;20053;-84
2023/03/01 12:03:34;;;;;;;18.63;12.63;;;;;;;;;;5100086;28;20507;-85
2023/03/01 12:06:23;;;;;;;18.95;12.23;;;;;;;;;;5100294;28;20042;-84
2023/03/01 12:09:08;;;;;;;19.77;12.52;;;;;;;;;;5098737;28;20038;-84
2023/03/01 12:11:52;;;;;;;24.42;11.52;;;;;;;;;;5100634;28;20039;-84
2023/03/01 12:15:15;;;;;;;18.65;11.63;;;8.20;99.90;;;;;;5073455;28;20127;-87
2023/03/01 12:18:03;;;;;;;20.20;11.20;;;;;;;;;;5100525;28;20543;-84
2023/03/01 12:21:02;;;;;;;15.57;10.65;;;;;;;;;;5115785;28;20070;-85
2023/03/01 12:23:47;;;;;;;19.15;11.05;;;;;;;;;;5100475;28;20442;-84
2023/03/01 12:26:34;;;;;;;18.23;10.98;;;;;;;;;;5073408;28;20070;-84
2023/03/01 12:29:37;;;;;;;16.63;11.25;;;8.40;99.90;;;;;;5116159;28;20124;-84
2023/03/01 12:32:21;;;;;;;18.17;10.98;;;;;;;;;;5092402;28;20435;-84
2023/03/01 12:35:26;;;;;;;17.23;10.85;;;;;;;;;;5080389;28;20039;-84
2023/03/01 12:38:22;;;;;;;14.95;10.20;;;;;;;;;;5095767;28;20039;-84
2023/03/01 12:41:06;;;;;;;17.13;11.02;;;;;;;;;;5095938;28;20030;-84
2023/03/01 12:44:27;;;;;;;18.67;11.00;;;9.30;99.90;;;;;;5095027;28;20035;-84
2023/03/01 12:47:15;;;;;;;19.25;10.95;;;;;;;;;;5055489;28;20075;-84
2023/03/01 12:50:19;;;;;;;17.58;11.55;;;;;;;;;;5079329;28;20084;-84
2023/03/01 12:53:04;;;;;;;15.80;10.90;;;;;;;;;;5085802;28;20043;-84
2023/03/01 12:55:49;;;;;;;17.80;11.77;;;;;;;;;;5065292;28;20416;-85
2023/03/01 12:58:40;;;;;;;17.60;11.45;;;;;;;;;;5095222;28;20115;-84
2023/03/01 13:01:41;;;;;;;17.60;12.18;;;;;;;;;;5080026;28;20035;-84
2023/03/01 13:04:36;;;;;;;18.63;12.18;;;;;;;;;;5079917;28;20086;-84
2023/03/01 13:07:27;;;;;;;18.95;12.10;;;;;;;;;;5095042;28;20115;-84
2023/03/01 13:10:32;;;;;;;17.65;11.65;;;;;;;;;;5078580;28;20055;-85
2023/03/01 13:13:26;;;;;;;17.42;11.60;;;;;;;;;;5068713;28;20039;-84
2023/03/01 13:16:30;;;;;;;17.35;12.23;;;;;;;;;;5094862;28;20441;-85
2023/03/01 13:19:17;;;;;;;19.15;11.73;;;9.30;99.90;;;;;;5079291;28;20426;-84
2023/03/01 13:22:21;;;;;;;19.02;12.73;;;;;;;;;;5093896;28;20060;-84
2023/03/01 13:25:14;;;;;;;21.15;12.23;;;;;;;;;;5067560;28;20043;-84
2023/03/01 13:28:36;;;;;;;19.67;13.00;;;9.10;99.90;;;;;;5078840;28;20030;-84
2023/03/01 13:31:23;;;;;;;20.42;12.07;;;;;;;;;;5094440;28;20129;-84
2023/03/01 13:34:28;;;;;;;18.63;12.13;;;;;;;;;;5078793;28;20418;-84
2023/03/01 13:37:20;;;;;;;20.35;12.00;;;;;;;;;;5065677;28;20066;-84
2023/03/01 13:40:25;;;;;;;18.50;11.40;;;;;;;;;;5078456;28;20035;-83
2023/03/01 13:43:32;;;;;;;17.35;12.20;;;;;;;;;;5093778;28;20119;-84
2023/03/01 13:46:20;;;;;;;19.35;12.73;;;;;;;;;;5085660;28;20505;-84
2023/03/01 13:49:05;;;;;;;19.27;12.77;;;;;;;;;;5093942;28;20131;-84
2023/03/01 13:51:50;;;;;;;18.77;12.15;;;;;;;;;;5064533;28;20058;-87
2023/03/01 13:54:35;;;;;;;21.00;11.70;;;;;;;;;;5078912;28;20429;-84
2023/03/01 13:57:23;;;;;;;19.83;12.00;;;;;;;;;;5078724;28;20085;-84
2023/03/01 14:00:25;;;;;;;17.42;11.85;;;;;;;;;;5078378;28;20035;-84
2023/03/01 14:03:13;;;;;;;19.25;11.82;;;9.10;99.90;;;;;;5083560;28;20106;-85
2023/03/01 14:05:58;;;;;;;17.63;11.50;;;;;;;;;;5093348;28;20070;-84
2023/03/01 14:08:43;;;;;;;17.25;11.35;;;;;;;;;;5078831;28;20071;-84
2023/03/01 14:11:31;;;;;;;19.48;12.05;;;;;;;;;;5094006;28;20082;-85
2023/03/01 14:14:15;;;;;;;19.77;12.32;;;;;;;;;;5093249;28;20031;-84
2023/03/01 14:17:09;;;;;;;16.60;11.35;;;;;;;;;;5093335;28;20094;-84
2023/03/01 14:19:59;;;;;;;18.10;12.40;;;;;;;;;;5078126;28;20038;-88
2023/03/01 14:22:44;;;;;;;17.77;11.82;;;;;;;;;;5093587;28;20035;-84
2023/03/01 14:25:32;;;;;;;19.73;11.65;;;;;;;;;;5078241;28;20506;-85
2023/03/01 14:28:17;;;;;;;16.30;11.30;;;;;;;;;;5077920;28;20082;-84
2023/03/01 14:31:02;;;;;;;17.98;11.07;;;;;;;;;;5092655;28;20034;-85
2023/03/01 14:33:54;;;;;;;16.60;10.70;;;;;;;;;;5114167;28;20067;-84
2023/03/01 14:36:39;;;;;;;15.23;10.18;;;;;;;;;;5113366;28;20434;-84
2023/03/01 14:39:28;;;;;;;13.77;9.88;;;;;;;;;;5098624;28;20045;-84
2023/03/01 14:42:14;;;;;;;15.98;9.40;;;;;;;;;;5097510;28;20118;-84
2023/03/01 14:45:01;;;;;;;16.45;9.90;;;;;;;;;;5097375;28;20039;-85
2023/03/01 14:47:46;;;;;;;13.18;9.80;;;;;;;;;;5098080;28;20042;-84
2023/03/01 14:50:51;;;;;;;16.63;9.73;;;;;;;;;;5097999;28;20076;-84
2023/03/01 14:53:35;;;;;;;13.85;9.07;;;;;;;;;;5097941;28;20057;-83
2023/03/01 14:56:20;;;;;;;16.75;10.63;;;;;;;;;;5083071;28;20521;-84
2023/03/01 14:59:05;;;;;;;16.48;9.98;;;;;;;;;;5112648;28;20076;-84
2023/03/01 15:01:50;;;;;;;14.80;10.43;;;;;;;;;;5083693;28;20579;-84
2023/03/01 15:04:35;;;;;;;18.92;10.98;;;;;;;;;;5097769;28;20038;-84
2023/03/01 15:07:20;;;;;;;16.67;10.25;;;;;;;;;;5097052;28;20399;-84
2023/03/01 15:10:06;;;;;;;18.25;11.00;;;;;;;;;;5083104;28;20046;-84
2023/03/01 15:12:52;;;;;;;20.60;11.27;;;;;;;;;;5112944;28;20455;-84
2023/03/01 15:15:42;;;;;;;18.35;11.05;;;8.00;99.90;;;;;;5097488;28;20034;-84
2023/03/01 15:18:28;;;;;;;15.93;11.13;;;;;;;;;;5113194;28;20489;-83
2023/03/01 15:21:16;;;;;;;17.83;12.07;;;;;;;;;;5097003;28;20406;-83
2023/03/01 15:24:19;;;;;;;17.55;11.35;;;7.90;99.90;;;;;;5112545;28;20403;-86
2023/03/01 15:27:14;;;;;;;23.90;13.50;;;;;;;;;;5056882;28;20051;-87
2023/03/01 15:30:01;;;;;;;22.23;11.88;;;;;;;;;;5071174;28;20066;-84
2023/03/01 15:32:46;;;;;;;21.42;12.30;;;;;;;;;;5097145;28;20074;-84
2023/03/01 15:35:41;;;;;;;20.60;12.23;;;;;;;;;;5112661;28;20108;-84
2023/03/01 15:38:25;;;;;;;20.23;12.48;;;;;;;;;;5096795;28;20038;-84
2023/03/01 15:41:27;;;;;;;19.33;12.05;;;;;;;;;;5112246;28;20050;-85
2023/03/01 15:44:16;;;;;;;19.02;12.20;;;;;;;;;;5111468;28;20540;-84
2023/03/01 15:47:01;;;;;;;18.42;12.43;;;;;;;;;;5112531;28;20034;-83
2023/03/01 15:49:45;;;;;;;24.05;13.50;;;;;;;;;;5112633;28;20502;-83
2023/03/01 15:52:42;;;;;;;20.17;12.60;;;7.50;99.90;;;;;;5112792;28;20465;-83
2023/03/01 15:55:32;;;;;;;20.20;12.85;;;;;;;;;;5111886;28;20088;-84
2023/03/01 15:58:22;;;;;;;21.88;12.90;;;;;;;;;;5112132;28;20157;-84
2023/03/01 16:01:12;;;;;;;22.58;14.45;;;;;;;;;;5112063;28;20034;-84
2023/03/01 16:03:57;;;;;;;22.83;14.13;;;;;;;;;;5096922;28;20035;-84
2023/03/01 16:06:43;;;;;;;23.08;13.85;;;;;;;;;;5112720;28;20490;-83
2023/03/01 16:09:27;;;;;;;21.38;13.45;;;;;;;;;;5111877;28;20444;-83